sensor_id;sensor_type;location;lat;lon;timestamp;pressure;altitude;pressure_sealevel;temperature;humidity
74627;BME280;63132;52.268;5.192;2022-11-25T00:01:29;100765.81;;;7.32;100.00
74627;BME280;63132;52.268;5.192;2022-11-25T00:03:56;100759.91;;;7.34;100.00
74627;BME280;63132;52.268;5.192;2022-11-25T00:06:23;100761.84;;;7.26;100.00
74627;BME280;63132;52.268;5.192;2022-11-25T00:08:52;100753.56;;;7.26;100.00
74627;BME280;63132;52.268;5.192;2022-11-25T00:11:18;100751.25;;;7.32;100.00
74627;BME280;63132;52.268;5.192;2022-11-25T00:13:45;100751.59;;;7.27;100.00
74627;BME280;63132;52.268;5.192;2022-11-25T00:16:13;100752.00;;;7.25;100.00
74627;BME280;63132;52.268;5.192;2022-11-25T00:18:39;100749.19;;;7.21;100.00
74627;BME280;63132;52.268;5.192;2022-11-25T00:21:09;100741.91;;;7.47;100.00
74627;BME280;63132;52.268;5.192;2022-11-25T00:23:36;100731.16;;;7.28;100.00
74627;BME280;63132;52.268;5.192;2022-11-25T00:26:07;100731.97;;;7.32;100.00
74627;BME280;63132;52.268;5.192;2022-11-25T00:28:33;100740.28;;;7.39;100.00
74627;BME280;63132;52.268;5.192;2022-11-25T00:31:16;100740.97;;;7.29;100.00
74627;BME280;63132;52.268;5.192;2022-11-25T00:33:48;100735.06;;;7.27;100.00
74627;BME280;63132;52.268;5.192;2022-11-25T00:36:23;100733.94;;;7.35;100.00
74627;BME280;63132;52.268;5.192;2022-11-25T00:38:58;100739.41;;;7.28;100.00
74627;BME280;63132;52.268;5.192;2022-11-25T00:41:27;100742.56;;;7.30;100.00
74627;BME280;63132;52.268;5.192;2022-11-25T00:44:13;100735.91;;;7.34;100.00
74627;BME280;63132;52.268;5.192;2022-11-25T00:46:57;100733.50;;;7.26;100.00
74627;BME280;63132;52.268;5.192;2022-11-25T00:49:23;100733.19;;;7.38;100.00
74627;BME280;63132;52.268;5.192;2022-11-25T00:51:48;100730.78;;;7.33;100.00
74627;BME280;63132;52.268;5.192;2022-11-25T00:54:14;100732.72;;;7.29;100.00
74627;BME280;63132;52.268;5.192;2022-11-25T00:56:39;100729.63;;;7.34;100.00
74627;BME280;63132;52.268;5.192;2022-11-25T00:59:05;100736.75;;;7.42;100.00
74627;BME280;63132;52.268;5.192;2022-11-25T01:01:31;100735.16;;;7.41;100.00
74627;BME280;63132;52.268;5.192;2022-11-25T01:03:57;100733.75;;;7.68;100.00
74627;BME280;63132;52.268;5.192;2022-11-25T01:06:22;100736.44;;;7.58;100.00
74627;BME280;63132;52.268;5.192;2022-11-25T01:08:48;100734.91;;;7.60;100.00
74627;BME280;63132;52.268;5.192;2022-11-25T01:11:16;100737.28;;;7.65;100.00
74627;BME280;63132;52.268;5.192;2022-11-25T01:13:42;100728.59;;;7.67;100.00
74627;BME280;63132;52.268;5.192;2022-11-25T01:16:11;100732.59;;;7.73;100.00
74627;BME280;63132;52.268;5.192;2022-11-25T01:18:36;100736.09;;;7.66;100.00
74627;BME280;63132;52.268;5.192;2022-11-25T01:21:09;100742.03;;;7.68;100.00
74627;BME280;63132;52.268;5.192;2022-11-25T01:23:35;100741.59;;;7.66;100.00
74627;BME280;63132;52.268;5.192;2022-11-25T01:26:03;100740.84;;;7.73;100.00
74627;BME280;63132;52.268;5.192;2022-11-25T01:28:29;100747.19;;;7.77;100.00
74627;BME280;63132;52.268;5.192;2022-11-25T01:31:08;100753.50;;;7.81;100.00
74627;BME280;63132;52.268;5.192;2022-11-25T01:33:34;100762.22;;;7.94;100.00
74627;BME280;63132;52.268;5.192;2022-11-25T01:36:04;100769.28;;;7.84;100.00
74627;BME280;63132;52.268;5.192;2022-11-25T01:38:30;100762.16;;;7.76;100.00
74627;BME280;63132;52.268;5.192;2022-11-25T01:40:57;100763.69;;;7.73;100.00
74627;BME280;63132;52.268;5.192;2022-11-25T01:43:23;100763.81;;;7.98;100.00
74627;BME280;63132;52.268;5.192;2022-11-25T01:45:49;100770.50;;;7.94;100.00
74627;BME280;63132;52.268;5.192;2022-11-25T01:48:22;100776.06;;;8.04;100.00
74627;BME280;63132;52.268;5.192;2022-11-25T01:50:49;100776.84;;;8.09;100.00
74627;BME280;63132;52.268;5.192;2022-11-25T01:53:18;100771.41;;;8.33;100.00
74627;BME280;63132;52.268;5.192;2022-11-25T01:55:49;100771.34;;;8.05;100.00
74627;BME280;63132;52.268;5.192;2022-11-25T01:58:26;100771.66;;;7.96;100.00
74627;BME280;63132;52.268;5.192;2022-11-25T02:00:53;100762.22;;;7.94;100.00
74627;BME280;63132;52.268;5.192;2022-11-25T02:03:22;100757.50;;;7.94;100.00
74627;BME280;63132;52.268;5.192;2022-11-25T02:05:53;100761.41;;;7.86;100.00
74627;BME280;63132;52.268;5.192;2022-11-25T02:08:22;100757.03;;;7.82;100.00
74627;BME280;63132;52.268;5.192;2022-11-25T02:10:49;100758.31;;;7.98;100.00
74627;BME280;63132;52.268;5.192;2022-11-25T02:13:15;100766.94;;;7.97;100.00
74627;BME280;63132;52.268;5.192;2022-11-25T02:15:41;100773.59;;;7.89;100.00
74627;BME280;63132;52.268;5.192;2022-11-25T02:18:06;100779.22;;;8.07;100.00
74627;BME280;63132;52.268;5.192;2022-11-25T02:20:32;100775.69;;;8.10;100.00
74627;BME280;63132;52.268;5.192;2022-11-25T02:25:50;100771.69;;;8.03;100.00
74627;BME280;63132;52.268;5.192;2022-11-25T02:30:43;100761.75;;;7.81;100.00
74627;BME280;63132;52.268;5.192;2022-11-25T02:33:09;100756.19;;;7.70;100.00
74627;BME280;63132;52.268;5.192;2022-11-25T02:35:38;100745.97;;;7.67;100.00
74627;BME280;63132;52.268;5.192;2022-11-25T02:38:08;100748.25;;;7.58;100.00
74627;BME280;63132;52.268;5.192;2022-11-25T02:40:48;100768.91;;;7.93;100.00
74627;BME280;63132;52.268;5.192;2022-11-25T02:43:16;100765.41;;;8.03;100.00
74627;BME280;63132;52.268;5.192;2022-11-25T02:45:48;100765.38;;;7.92;100.00
74627;BME280;63132;52.268;5.192;2022-11-25T02:48:15;100767.34;;;7.95;100.00
74627;BME280;63132;52.268;5.192;2022-11-25T02:50:41;100771.63;;;7.86;100.00
74627;BME280;63132;52.268;5.192;2022-11-25T02:53:07;100774.75;;;7.77;100.00
74627;BME280;63132;52.268;5.192;2022-11-25T02:55:33;100766.03;;;7.71;100.00
74627;BME280;63132;52.268;5.192;2022-11-25T02:57:58;100758.13;;;7.63;100.00
74627;BME280;63132;52.268;5.192;2022-11-25T03:00:24;100756.13;;;7.56;100.00
74627;BME280;63132;52.268;5.192;2022-11-25T03:02:52;100760.22;;;7.84;100.00
74627;BME280;63132;52.268;5.192;2022-11-25T03:05:19;100765.22;;;7.64;100.00
74627;BME280;63132;52.268;5.192;2022-11-25T03:07:45;100768.81;;;7.71;100.00
74627;BME280;63132;52.268;5.192;2022-11-25T03:10:10;100779.13;;;7.89;100.00
74627;BME280;63132;52.268;5.192;2022-11-25T03:12:36;100794.00;;;7.70;100.00
74627;BME280;63132;52.268;5.192;2022-11-25T03:15:01;100787.88;;;8.09;100.00
74627;BME280;63132;52.268;5.192;2022-11-25T03:17:27;100797.69;;;7.99;100.00
74627;BME280;63132;52.268;5.192;2022-11-25T03:19:52;100796.94;;;8.05;100.00
74627;BME280;63132;52.268;5.192;2022-11-25T03:22:18;100793.72;;;7.96;100.00
74627;BME280;63132;52.268;5.192;2022-11-25T03:24:43;100784.56;;;7.71;100.00
74627;BME280;63132;52.268;5.192;2022-11-25T03:27:09;100787.69;;;7.69;100.00
74627;BME280;63132;52.268;5.192;2022-11-25T03:29:34;100787.75;;;7.76;100.00
74627;BME280;63132;52.268;5.192;2022-11-25T03:31:59;100784.19;;;7.76;100.00
74627;BME280;63132;52.268;5.192;2022-11-25T03:34:25;100780.13;;;7.56;100.00
74627;BME280;63132;52.268;5.192;2022-11-25T03:36:50;100781.66;;;7.49;100.00
74627;BME280;63132;52.268;5.192;2022-11-25T03:39:16;100771.88;;;7.59;100.00
74627;BME280;63132;52.268;5.192;2022-11-25T03:41:41;100780.06;;;7.45;100.00
74627;BME280;63132;52.268;5.192;2022-11-25T03:44:07;100784.03;;;7.51;100.00
74627;BME280;63132;52.268;5.192;2022-11-25T03:46:32;100785.31;;;7.64;100.00
74627;BME280;63132;52.268;5.192;2022-11-25T03:48:57;100787.22;;;7.53;100.00
74627;BME280;63132;52.268;5.192;2022-11-25T03:51:23;100793.88;;;7.52;100.00
74627;BME280;63132;52.268;5.192;2022-11-25T03:53:48;100797.09;;;7.61;100.00
74627;BME280;63132;52.268;5.192;2022-11-25T03:56:13;100798.81;;;7.84;100.00
74627;BME280;63132;52.268;5.192;2022-11-25T03:58:39;100807.84;;;7.81;100.00
74627;BME280;63132;52.268;5.192;2022-11-25T04:01:04;100806.66;;;7.82;100.00
74627;BME280;63132;52.268;5.192;2022-11-25T04:03:30;100806.66;;;7.82;100.00
74627;BME280;63132;52.268;5.192;2022-11-25T04:05:55;100806.22;;;7.72;100.00
74627;BME280;63132;52.268;5.192;2022-11-25T04:08:21;100807.00;;;7.73;100.00
74627;BME280;63132;52.268;5.192;2022-11-25T04:10:50;100824.22;;;7.59;100.00
74627;BME280;63132;52.268;5.192;2022-11-25T04:13:15;100819.81;;;8.06;100.00
74627;BME280;63132;52.268;5.192;2022-11-25T04:15:45;100816.53;;;7.83;100.00
74627;BME280;63132;52.268;5.192;2022-11-25T04:18:13;100821.22;;;7.75;100.00
74627;BME280;63132;52.268;5.192;2022-11-25T04:20:39;100823.56;;;7.76;100.00
74627;BME280;63132;52.268;5.192;2022-11-25T04:23:04;100828.66;;;7.71;100.00
74627;BME280;63132;52.268;5.192;2022-11-25T04:25:34;100826.63;;;7.64;100.00
74627;BME280;63132;52.268;5.192;2022-11-25T04:28:00;100830.56;;;7.63;100.00
74627;BME280;63132;52.268;5.192;2022-11-25T04:30:26;100834.56;;;7.69;100.00
74627;BME280;63132;52.268;5.192;2022-11-25T04:32:51;100839.19;;;7.58;100.00
74627;BME280;63132;52.268;5.192;2022-11-25T04:35:17;100838.44;;;7.61;100.00
74627;BME280;63132;52.268;5.192;2022-11-25T04:37:42;100842.44;;;7.74;100.00
74627;BME280;63132;52.268;5.192;2022-11-25T04:40:08;100845.28;;;7.85;100.00
74627;BME280;63132;52.268;5.192;2022-11-25T04:42:33;100849.69;;;7.42;100.00
74627;BME280;63132;52.268;5.192;2022-11-25T04:45:04;100842.50;;;7.27;100.00
74627;BME280;63132;52.268;5.192;2022-11-25T04:47:29;100850.69;;;7.19;100.00
74627;BME280;63132;52.268;5.192;2022-11-25T04:49:56;100853.56;;;7.30;100.00
74627;BME280;63132;52.268;5.192;2022-11-25T04:52:21;100854.78;;;7.36;100.00
74627;BME280;63132;52.268;5.192;2022-11-25T04:54:47;100858.25;;;7.30;100.00
74627;BME280;63132;52.268;5.192;2022-11-25T04:57:13;100866.47;;;7.22;100.00
74627;BME280;63132;52.268;5.192;2022-11-25T04:59:40;100868.91;;;6.90;100.00
74627;BME280;63132;52.268;5.192;2022-11-25T05:02:26;100866.06;;;6.80;100.00
74627;BME280;63132;52.268;5.192;2022-11-25T05:04:54;100884.66;;;6.56;100.00
74627;BME280;63132;52.268;5.192;2022-11-25T05:07:22;100888.56;;;6.55;100.00
74627;BME280;63132;52.268;5.192;2022-11-25T05:09:48;100884.91;;;6.44;100.00
74627;BME280;63132;52.268;5.192;2022-11-25T05:12:19;100891.56;;;6.43;100.00
74627;BME280;63132;52.268;5.192;2022-11-25T05:14:45;100891.88;;;6.38;100.00
74627;BME280;63132;52.268;5.192;2022-11-25T05:17:16;100882.25;;;6.55;100.00
74627;BME280;63132;52.268;5.192;2022-11-25T05:19:42;100895.00;;;6.66;100.00
74627;BME280;63132;52.268;5.192;2022-11-25T05:22:12;100903.72;;;6.72;100.00
74627;BME280;63132;52.268;5.192;2022-11-25T05:24:38;100911.22;;;6.45;100.00
74627;BME280;63132;52.268;5.192;2022-11-25T05:27:04;100911.09;;;6.64;100.00
74627;BME280;63132;52.268;5.192;2022-11-25T05:29:29;100917.13;;;6.77;100.00
74627;BME280;63132;52.268;5.192;2022-11-25T05:31:54;100916.50;;;6.57;100.00
74627;BME280;63132;52.268;5.192;2022-11-25T05:34:20;100919.97;;;6.51;100.00
74627;BME280;63132;52.268;5.192;2022-11-25T05:36:45;100925.38;;;6.44;100.00
74627;BME280;63132;52.268;5.192;2022-11-25T05:39:10;100924.66;;;6.50;100.00
74627;BME280;63132;52.268;5.192;2022-11-25T05:41:36;100920.44;;;6.56;100.00
74627;BME280;63132;52.268;5.192;2022-11-25T05:44:01;100918.78;;;6.52;100.00
74627;BME280;63132;52.268;5.192;2022-11-25T05:46:27;100917.22;;;6.51;100.00
74627;BME280;63132;52.268;5.192;2022-11-25T05:48:54;100910.53;;;6.52;100.00
74627;BME280;63132;52.268;5.192;2022-11-25T05:51:19;100922.16;;;6.38;100.00
74627;BME280;63132;52.268;5.192;2022-11-25T05:53:45;100925.78;;;6.46;100.00
74627;BME280;63132;52.268;5.192;2022-11-25T05:56:11;100934.19;;;6.56;100.00
74627;BME280;63132;52.268;5.192;2022-11-25T05:58:36;100935.47;;;6.36;100.00
74627;BME280;63132;52.268;5.192;2022-11-25T06:01:06;100933.41;;;6.56;100.00
74627;BME280;63132;52.268;5.192;2022-11-25T06:03:32;100934.53;;;6.25;100.00
74627;BME280;63132;52.268;5.192;2022-11-25T06:05:58;100939.16;;;6.47;100.00
74627;BME280;63132;52.268;5.192;2022-11-25T06:08:25;100945.91;;;6.53;100.00
74627;BME280;63132;52.268;5.192;2022-11-25T06:10:50;100950.31;;;6.58;100.00
74627;BME280;63132;52.268;5.192;2022-11-25T06:13:16;100953.28;;;6.76;100.00
74627;BME280;63132;52.268;5.192;2022-11-25T06:15:43;100946.88;;;6.64;100.00
74627;BME280;63132;52.268;5.192;2022-11-25T06:18:10;100950.03;;;6.66;100.00
74627;BME280;63132;52.268;5.192;2022-11-25T06:20:36;100949.66;;;6.68;100.00
74627;BME280;63132;52.268;5.192;2022-11-25T06:23:02;100942.06;;;6.91;100.00
74627;BME280;63132;52.268;5.192;2022-11-25T06:25:27;100958.56;;;6.88;100.00
74627;BME280;63132;52.268;5.192;2022-11-25T06:27:53;100962.06;;;6.55;100.00
74627;BME280;63132;52.268;5.192;2022-11-25T06:30:18;100962.84;;;6.55;100.00
74627;BME280;63132;52.268;5.192;2022-11-25T06:32:44;100953.00;;;6.54;100.00
74627;BME280;63132;52.268;5.192;2022-11-25T06:35:09;100960.16;;;6.59;100.00
74627;BME280;63132;52.268;5.192;2022-11-25T06:37:35;100966.06;;;6.31;100.00
74627;BME280;63132;52.268;5.192;2022-11-25T06:40:00;100968.38;;;6.29;100.00
74627;BME280;63132;52.268;5.192;2022-11-25T06:42:26;100980.47;;;6.51;100.00
74627;BME280;63132;52.268;5.192;2022-11-25T06:44:52;100983.28;;;6.54;100.00
74627;BME280;63132;52.268;5.192;2022-11-25T06:47:17;100987.84;;;6.17;100.00
74627;BME280;63132;52.268;5.192;2022-11-25T06:49:42;100985.88;;;6.17;100.00
74627;BME280;63132;52.268;5.192;2022-11-25T06:52:08;100986.56;;;6.10;100.00
74627;BME280;63132;52.268;5.192;2022-11-25T06:54:33;100993.06;;;5.99;100.00
74627;BME280;63132;52.268;5.192;2022-11-25T06:56:59;100997.03;;;6.01;100.00
74627;BME280;63132;52.268;5.192;2022-11-25T06:59:28;100997.91;;;6.05;100.00
74627;BME280;63132;52.268;5.192;2022-11-25T07:01:53;100993.50;;;6.01;100.00
74627;BME280;63132;52.268;5.192;2022-11-25T07:04:19;101003.16;;;5.91;100.00
74627;BME280;63132;52.268;5.192;2022-11-25T07:06:44;101003.81;;;6.07;100.00
74627;BME280;63132;52.268;5.192;2022-11-25T07:09:09;101017.41;;;5.97;100.00
74627;BME280;63132;52.268;5.192;2022-11-25T07:11:37;101018.94;;;6.21;100.00
74627;BME280;63132;52.268;5.192;2022-11-25T07:14:06;101028.63;;;6.11;100.00
74627;BME280;63132;52.268;5.192;2022-11-25T07:16:32;101021.50;;;5.87;100.00
74627;BME280;63132;52.268;5.192;2022-11-25T07:18:59;101029.84;;;5.91;100.00
74627;BME280;63132;52.268;5.192;2022-11-25T07:21:29;101027.13;;;5.71;100.00
74627;BME280;63132;52.268;5.192;2022-11-25T07:23:57;101029.97;;;5.98;100.00
74627;BME280;63132;52.268;5.192;2022-11-25T07:26:25;101036.78;;;5.84;100.00
74627;BME280;63132;52.268;5.192;2022-11-25T07:28:52;101036.59;;;5.74;100.00
74627;BME280;63132;52.268;5.192;2022-11-25T07:31:22;101041.25;;;6.16;100.00
74627;BME280;63132;52.268;5.192;2022-11-25T07:33:54;101047.50;;;6.13;100.00
74627;BME280;63132;52.268;5.192;2022-11-25T07:36:20;101037.97;;;6.06;100.00
74627;BME280;63132;52.268;5.192;2022-11-25T07:38:46;101045.91;;;6.12;100.00
74627;BME280;63132;52.268;5.192;2022-11-25T07:41:14;101056.91;;;6.12;100.00
74627;BME280;63132;52.268;5.192;2022-11-25T07:43:40;101073.34;;;6.08;100.00
74627;BME280;63132;52.268;5.192;2022-11-25T07:46:12;101074.88;;;6.05;100.00
74627;BME280;63132;52.268;5.192;2022-11-25T07:48:38;101074.91;;;6.09;100.00
74627;BME280;63132;52.268;5.192;2022-11-25T07:51:05;101080.41;;;6.09;100.00
74627;BME280;63132;52.268;5.192;2022-11-25T07:53:37;101079.31;;;6.36;100.00
74627;BME280;63132;52.268;5.192;2022-11-25T07:56:02;101092.44;;;6.24;100.00
74627;BME280;63132;52.268;5.192;2022-11-25T07:58:28;101093.25;;;6.24;100.00
74627;BME280;63132;52.268;5.192;2022-11-25T08:00:53;101091.59;;;6.20;100.00
74627;BME280;63132;52.268;5.192;2022-11-25T08:03:19;101089.44;;;6.09;100.00
74627;BME280;63132;52.268;5.192;2022-11-25T08:05:44;101091.13;;;6.14;100.00
74627;BME280;63132;52.268;5.192;2022-11-25T08:08:09;101101.88;;;6.23;100.00
74627;BME280;63132;52.268;5.192;2022-11-25T08:10:38;101109.81;;;6.28;100.00
74627;BME280;63132;52.268;5.192;2022-11-25T08:13:04;101113.53;;;6.16;100.00
74627;BME280;63132;52.268;5.192;2022-11-25T08:15:31;101117.44;;;6.38;100.00
74627;BME280;63132;52.268;5.192;2022-11-25T08:17:56;101122.75;;;6.50;100.00
74627;BME280;63132;52.268;5.192;2022-11-25T08:20:22;101113.84;;;6.34;100.00
74627;BME280;63132;52.268;5.192;2022-11-25T08:22:47;101124.50;;;6.62;100.00
74627;BME280;63132;52.268;5.192;2022-11-25T08:25:12;101130.09;;;6.69;100.00
74627;BME280;63132;52.268;5.192;2022-11-25T08:27:38;101136.59;;;6.80;100.00
74627;BME280;63132;52.268;5.192;2022-11-25T08:30:04;101136.47;;;6.73;100.00
74627;BME280;63132;52.268;5.192;2022-11-25T08:32:30;101133.19;;;6.64;100.00
74627;BME280;63132;52.268;5.192;2022-11-25T08:34:55;101139.94;;;6.70;100.00
74627;BME280;63132;52.268;5.192;2022-11-25T08:37:21;101141.91;;;6.70;100.00
74627;BME280;63132;52.268;5.192;2022-11-25T08:39:48;101148.00;;;6.56;100.00
74627;BME280;63132;52.268;5.192;2022-11-25T08:42:14;101147.88;;;6.49;100.00
74627;BME280;63132;52.268;5.192;2022-11-25T08:44:39;101149.81;;;6.71;100.00
74627;BME280;63132;52.268;5.192;2022-11-25T08:47:04;101159.91;;;6.90;100.00
74627;BME280;63132;52.268;5.192;2022-11-25T08:49:30;101153.72;;;6.70;100.00
74627;BME280;63132;52.268;5.192;2022-11-25T08:51:55;101159.88;;;6.86;100.00
74627;BME280;63132;52.268;5.192;2022-11-25T08:54:21;101160.34;;;6.92;100.00
74627;BME280;63132;52.268;5.192;2022-11-25T08:56:49;101167.59;;;6.77;100.00
74627;BME280;63132;52.268;5.192;2022-11-25T08:59:15;101172.31;;;7.03;100.00
74627;BME280;63132;52.268;5.192;2022-11-25T09:01:40;101162.03;;;7.00;100.00
74627;BME280;63132;52.268;5.192;2022-11-25T09:04:05;101164.03;;;6.77;100.00
74627;BME280;63132;52.268;5.192;2022-11-25T09:06:31;101165.53;;;6.97;100.00
74627;BME280;63132;52.268;5.192;2022-11-25T09:08:57;101177.97;;;6.87;100.00
74627;BME280;63132;52.268;5.192;2022-11-25T09:11:23;101175.06;;;7.03;100.00
74627;BME280;63132;52.268;5.192;2022-11-25T09:13:49;101186.59;;;7.12;100.00
74627;BME280;63132;52.268;5.192;2022-11-25T09:16:14;101185.59;;;7.24;100.00
74627;BME280;63132;52.268;5.192;2022-11-25T09:18:40;101195.28;;;7.14;99.81
74627;BME280;63132;52.268;5.192;2022-11-25T09:21:07;101188.31;;;6.94;100.00
74627;BME280;63132;52.268;5.192;2022-11-25T09:23:34;101191.53;;;7.00;100.00
74627;BME280;63132;52.268;5.192;2022-11-25T09:25:59;101199.00;;;7.26;100.00
74627;BME280;63132;52.268;5.192;2022-11-25T09:28:25;101199.69;;;7.19;100.00
74627;BME280;63132;52.268;5.192;2022-11-25T09:30:51;101206.31;;;7.14;100.00
74627;BME280;63132;52.268;5.192;2022-11-25T09:33:17;101205.63;;;7.21;100.00
74627;BME280;63132;52.268;5.192;2022-11-25T09:35:43;101211.59;;;7.27;99.83
74627;BME280;63132;52.268;5.192;2022-11-25T09:38:09;101218.63;;;7.50;99.12
74627;BME280;63132;52.268;5.192;2022-11-25T09:40:49;101218.16;;;7.45;98.94
74627;BME280;63132;52.268;5.192;2022-11-25T09:46:29;101232.69;;;7.42;98.91
74627;BME280;63132;52.268;5.192;2022-11-25T09:54:14;101235.50;;;7.75;99.30
74627;BME280;63132;52.268;5.192;2022-11-25T09:56:50;101234.25;;;7.69;98.43
74627;BME280;63132;52.268;5.192;2022-11-25T09:59:20;101246.56;;;7.79;99.41
74627;BME280;63132;52.268;5.192;2022-11-25T10:02:00;101254.53;;;7.88;97.78
74627;BME280;63132;52.268;5.192;2022-11-25T10:05:05;101244.19;;;7.77;97.95
74627;BME280;63132;52.268;5.192;2022-11-25T10:07:54;101265.47;;;7.81;98.52
74627;BME280;63132;52.268;5.192;2022-11-25T10:10:26;101254.63;;;7.95;97.65
74627;BME280;63132;52.268;5.192;2022-11-25T10:12:55;101264.75;;;7.84;97.70
74627;BME280;63132;52.268;5.192;2022-11-25T10:15:26;101262.50;;;7.93;98.06
74627;BME280;63132;52.268;5.192;2022-11-25T10:18:02;101265.34;;;8.00;97.54
74627;BME280;63132;52.268;5.192;2022-11-25T10:20:34;101277.84;;;7.90;98.24
74627;BME280;63132;52.268;5.192;2022-11-25T10:23:07;101268.94;;;8.04;96.68
74627;BME280;63132;52.268;5.192;2022-11-25T10:25:38;101280.03;;;8.11;97.06
74627;BME280;63132;52.268;5.192;2022-11-25T10:28:20;101277.66;;;8.10;97.29
74627;BME280;63132;52.268;5.192;2022-11-25T10:36:08;101282.84;;;8.48;94.78
74627;BME280;63132;52.268;5.192;2022-11-25T10:38:46;101287.94;;;8.43;95.18
74627;BME280;63132;52.268;5.192;2022-11-25T10:41:16;101293.19;;;8.55;95.73
74627;BME280;63132;52.268;5.192;2022-11-25T10:43:45;101289.25;;;8.56;95.48
74627;BME280;63132;52.268;5.192;2022-11-25T10:54:17;101322.59;;;8.77;94.00
74627;BME280;63132;52.268;5.192;2022-11-25T10:59:14;101327.06;;;8.89;93.29
74627;BME280;63132;52.268;5.192;2022-11-25T11:01:45;101334.50;;;8.81;93.12
74627;BME280;63132;52.268;5.192;2022-11-25T11:04:12;101334.63;;;8.96;93.46
74627;BME280;63132;52.268;5.192;2022-11-25T11:06:44;101336.22;;;8.97;93.26
74627;BME280;63132;52.268;5.192;2022-11-25T11:09:39;101339.00;;;9.00;92.70
74627;BME280;63132;52.268;5.192;2022-11-25T11:12:22;101343.41;;;9.08;92.91
74627;BME280;63132;52.268;5.192;2022-11-25T11:14:47;101347.47;;;9.18;92.14
74627;BME280;63132;52.268;5.192;2022-11-25T11:17:29;101351.75;;;9.15;93.26
74627;BME280;63132;52.268;5.192;2022-11-25T11:22:35;101354.19;;;9.21;92.87
74627;BME280;63132;52.268;5.192;2022-11-25T11:25:24;101357.00;;;9.24;93.93
74627;BME280;63132;52.268;5.192;2022-11-25T11:27:51;101369.81;;;9.47;92.33
74627;BME280;63132;52.268;5.192;2022-11-25T11:30:19;101372.97;;;9.49;91.93
74627;BME280;63132;52.268;5.192;2022-11-25T11:32:56;101379.25;;;9.46;91.84
74627;BME280;63132;52.268;5.192;2022-11-25T11:35:40;101381.22;;;9.41;92.82
74627;BME280;63132;52.268;5.192;2022-11-25T11:38:32;101379.38;;;9.60;91.36
74627;BME280;63132;52.268;5.192;2022-11-25T11:44:08;101389.88;;;9.91;91.10
74627;BME280;63132;52.268;5.192;2022-11-25T11:59:54;101389.25;;;9.61;93.80
74627;BME280;63132;52.268;5.192;2022-11-25T12:02:31;101394.09;;;9.71;93.37
74627;BME280;63132;52.268;5.192;2022-11-25T12:05:13;101395.34;;;9.81;93.22
74627;BME280;63132;52.268;5.192;2022-11-25T12:10:27;101394.78;;;10.16;91.83
74627;BME280;63132;52.268;5.192;2022-11-25T12:13:19;101397.94;;;10.14;91.90
74627;BME280;63132;52.268;5.192;2022-11-25T12:15:57;101406.19;;;10.11;91.87
74627;BME280;63132;52.268;5.192;2022-11-25T12:18:48;101406.94;;;10.04;93.41
74627;BME280;63132;52.268;5.192;2022-11-25T12:22:02;101422.81;;;10.11;93.00
74627;BME280;63132;52.268;5.192;2022-11-25T12:24:39;101425.69;;;10.25;92.36
74627;BME280;63132;52.268;5.192;2022-11-25T12:27:18;101427.78;;;10.49;91.10
74627;BME280;63132;52.268;5.192;2022-11-25T12:29:52;101428.28;;;10.69;91.39
74627;BME280;63132;52.268;5.192;2022-11-25T12:35:34;101432.41;;;11.25;88.38
74627;BME280;63132;52.268;5.192;2022-11-25T12:40:39;101443.13;;;11.52;86.85
74627;BME280;63132;52.268;5.192;2022-11-25T12:45:50;101442.72;;;11.75;85.83
74627;BME280;63132;52.268;5.192;2022-11-25T12:48:19;101444.31;;;11.58;87.06
74627;BME280;63132;52.268;5.192;2022-11-25T12:50:51;101445.13;;;12.01;85.29
74627;BME280;63132;52.268;5.192;2022-11-25T12:55:51;101451.44;;;12.19;83.72
74627;BME280;63132;52.268;5.192;2022-11-25T12:58:40;101453.03;;;12.13;83.82
74627;BME280;63132;52.268;5.192;2022-11-25T13:17:11;101475.19;;;11.38;90.32
74627;BME280;63132;52.268;5.192;2022-11-25T13:19:37;101483.91;;;11.44;88.58
74627;BME280;63132;52.268;5.192;2022-11-25T13:22:05;101483.16;;;11.65;86.52
74627;BME280;63132;52.268;5.192;2022-11-25T13:24:38;101492.25;;;11.58;86.07
74627;BME280;63132;52.268;5.192;2022-11-25T13:27:05;101499.31;;;11.31;86.66
74627;BME280;63132;52.268;5.192;2022-11-25T13:31:59;101494.13;;;11.04;87.45
74627;BME280;63132;52.268;5.192;2022-11-25T13:34:35;101504.03;;;11.05;87.59
74627;BME280;63132;52.268;5.192;2022-11-25T13:42:46;101521.03;;;11.04;87.67
74627;BME280;63132;52.268;5.192;2022-11-25T13:45:30;101525.25;;;10.73;88.95
74627;BME280;63132;52.268;5.192;2022-11-25T13:50:51;101536.75;;;10.78;89.35
74627;BME280;63132;52.268;5.192;2022-11-25T13:53:36;101539.53;;;10.82;89.76
74627;BME280;63132;52.268;5.192;2022-11-25T13:56:25;101543.00;;;10.65;90.26
74627;BME280;63132;52.268;5.192;2022-11-25T14:04:11;101556.00;;;10.53;90.42
74627;BME280;63132;52.268;5.192;2022-11-25T14:10:18;101559.47;;;10.40;91.38
74627;BME280;63132;52.268;5.192;2022-11-25T14:15:15;101567.09;;;10.57;90.63
74627;BME280;63132;52.268;5.192;2022-11-25T14:18:33;101583.38;;;10.66;90.16
74627;BME280;63132;52.268;5.192;2022-11-25T14:26:51;101591.47;;;10.99;90.37
74627;BME280;63132;52.268;5.192;2022-11-25T14:31:49;101600.22;;;11.05;89.56
74627;BME280;63132;52.268;5.192;2022-11-25T14:34:20;101603.88;;;11.20;89.00
74627;BME280;63132;52.268;5.192;2022-11-25T14:36:58;101612.19;;;11.20;88.01
74627;BME280;63132;52.268;5.192;2022-11-25T14:39:51;101614.22;;;11.33;88.27
74627;BME280;63132;52.268;5.192;2022-11-25T14:42:21;101620.50;;;11.20;89.11
74627;BME280;63132;52.268;5.192;2022-11-25T14:44:52;101618.13;;;11.22;87.51
74627;BME280;63132;52.268;5.192;2022-11-25T14:47:27;101628.31;;;10.96;88.31
74627;BME280;63132;52.268;5.192;2022-11-25T14:49:56;101629.78;;;10.83;89.12